Time;durP1;ratioP1;P1;durP2;ratioP2;P2;SDS_P1;SDS_P2;PMS_P1;PMS_P2;Temp;Humidity;BMP_temperature;BMP_pressure;BME280_temperature;BME280_humidity;BME280_pressure;Samples;Min_cycle;Max_cycle;Signal;HPM_P1;HPM_P2
2021/01/30 00:00:08;;;;;;;44.97;21.63;;;1.40;99.90;;;;;;4107264;28;20315;-46
2021/01/30 00:02:09;;;;;;;52.83;21.70;;;1.40;99.90;;;;;;4106927;28;20343;-44
2021/01/30 00:04:14;;;;;;;40.93;21.93;;;1.40;99.90;;;;;;4107081;28;20327;-44
2021/01/30 00:06:15;;;;;;;42.90;23.10;;;1.40;99.90;;;;;;4106873;28;20272;-44
2021/01/30 00:08:17;;;;;;;43.43;23.13;;;1.40;99.90;;;;;;4107049;28;20280;-49
2021/01/30 00:10:20;;;;;;;43.03;22.40;;;1.40;99.90;;;;;;4105948;28;20776;-47
2021/01/30 00:12:21;;;;;;;42.03;22.77;;;1.50;99.90;;;;;;4107379;28;20339;-45
2021/01/30 00:14:32;;;;;;;45.37;22.83;;;1.50;99.90;;;;;;4107535;28;20265;-49
2021/01/30 00:16:33;;;;;;;41.50;21.58;;;1.50;99.90;;;;;;4107149;28;20276;-46
2021/01/30 00:18:34;;;;;;;45.73;21.73;;;1.50;99.90;;;;;;4106707;28;20059;-46
2021/01/30 00:20:37;;;;;;;45.30;22.00;;;1.50;99.90;;;;;;4107407;28;20617;-50
2021/01/30 00:22:38;;;;;;;46.23;21.93;;;1.50;99.90;;;;;;4106279;28;20329;-43
2021/01/30 00:24:42;;;;;;;42.07;21.83;;;1.50;99.90;;;;;;4107415;28;20323;-44
2021/01/30 00:26:48;;;;;;;42.57;20.77;;;1.50;99.90;;;;;;4106751;28;20807;-43
2021/01/30 00:28:49;;;;;;;49.73;25.93;;;1.50;99.90;;;;;;4106984;28;20343;-44
2021/01/30 00:30:50;;;;;;;41.40;20.77;;;1.60;99.90;;;;;;4107085;28;20529;-44
2021/01/30 00:32:52;;;;;;;41.73;22.73;;;1.50;99.90;;;;;;4107079;28;20831;-48
2021/01/30 00:34:53;;;;;;;46.40;24.13;;;1.50;99.90;;;;;;4109715;28;20285;-46
2021/01/30 00:36:57;;;;;;;41.53;22.47;;;1.50;99.90;;;;;;4110224;28;20355;-46
2021/01/30 00:38:58;;;;;;;46.97;23.00;;;1.50;99.90;;;;;;4110318;28;20281;-44
2021/01/30 00:40:59;;;;;;;36.77;20.60;;;1.50;99.90;;;;;;4109940;28;20356;-50
2021/01/30 00:43:00;;;;;;;41.23;22.77;;;1.50;99.90;;;;;;4109986;28;20272;-45
2021/01/30 00:45:05;;;;;;;45.07;22.53;;;1.50;99.90;;;;;;4110195;28;20280;-44
2021/01/30 00:47:07;;;;;;;44.70;21.27;;;1.50;99.90;;;;;;4109807;28;20305;-44
2021/01/30 00:49:09;;;;;;;44.83;21.57;;;1.40;99.90;;;;;;4109811;28;20331;-41
2021/01/30 00:51:10;;;;;;;40.50;22.13;;;1.40;99.90;;;;;;4110800;28;20763;-50
2021/01/30 00:53:11;;;;;;;45.00;22.20;;;1.40;99.90;;;;;;4109914;28;20277;-45
2021/01/30 00:55:15;;;;;;;42.37;22.17;;;1.40;99.90;;;;;;4110369;28;20269;-44
2021/01/30 00:57:16;;;;;;;44.93;22.20;;;1.40;99.90;;;;;;4109973;28;20335;-47
2021/01/30 00:59:18;;;;;;;44.80;23.33;;;1.40;99.90;;;;;;4109799;28;20335;-42
2021/01/30 01:01:19;;;;;;;45.60;22.77;;;1.40;99.90;;;;;;4109753;28;20281;-45
2021/01/30 01:03:20;;;;;;;42.30;23.23;;;1.30;99.90;;;;;;4109246;28;20281;-51
2021/01/30 01:05:22;;;;;;;46.43;22.10;;;1.30;99.90;;;;;;4109732;28;20335;-43
2021/01/30 01:07:24;;;;;;;45.73;22.73;;;1.20;99.90;;;;;;4109863;28;20269;-52
2021/01/30 01:09:25;;;;;;;46.07;23.57;;;1.20;99.90;;;;;;4109636;28;20327;-47
2021/01/30 01:11:26;;;;;;;49.80;25.23;;;1.20;99.90;;;;;;4109902;28;21084;-49
2021/01/30 01:13:28;;;;;;;53.07;25.60;;;1.20;99.90;;;;;;4109828;28;20277;-47
2021/01/30 01:15:29;;;;;;;50.00;26.57;;;1.20;99.90;;;;;;4109632;28;20276;-49
2021/01/30 01:17:30;;;;;;;59.13;29.17;;;1.20;99.90;;;;;;4109622;28;20289;-45
2021/01/30 01:19:31;;;;;;;59.70;28.17;;;1.20;99.90;;;;;;4109538;28;20273;-46
2021/01/30 01:21:32;;;;;;;61.10;29.63;;;1.20;99.90;;;;;;4109705;28;20301;-50
2021/01/30 01:23:33;;;;;;;58.97;28.47;;;1.20;99.90;;;;;;4109746;28;20272;-50
2021/01/30 01:25:35;;;;;;;57.27;28.07;;;1.30;99.90;;;;;;4110164;28;20273;-51
2021/01/30 01:27:36;;;;;;;64.23;30.73;;;1.30;99.90;;;;;;4109102;28;20289;-43
2021/01/30 01:29:37;;;;;;;59.67;29.70;;;1.30;99.90;;;;;;4109856;28;20409;-44
2021/01/30 01:31:38;;;;;;;61.27;28.27;;;1.30;99.90;;;;;;4109070;28;20303;-48
2021/01/30 01:33:40;;;;;;;56.60;29.03;;;1.30;99.90;;;;;;4109198;28;20335;-46
2021/01/30 01:35:43;;;;;;;56.43;28.23;;;1.30;99.90;;;;;;4110064;28;20273;-45
2021/01/30 01:37:45;;;;;;;59.33;29.43;;;1.20;99.90;;;;;;4109685;28;20285;-45
2021/01/30 01:39:46;;;;;;;59.20;28.20;;;1.20;99.90;;;;;;4109139;28;20689;-49
2021/01/30 01:41:57;;;;;;;65.93;30.60;;;1.20;99.90;;;;;;4108674;28;20355;-46
2021/01/30 01:43:59;;;;;;;68.13;32.03;;;1.20;99.90;;;;;;4109923;28;20297;-47
2021/01/30 01:46:32;;;;;;;57.17;29.50;;;1.20;99.90;;;;;;4107743;28;20288;-44
2021/01/30 01:48:43;;;;;;;67.73;32.10;;;1.20;99.90;;;;;;4108479;28;20336;-49
2021/01/30 01:50:49;;;;;;;83.68;39.17;;;1.20;99.90;;;;;;4108825;28;20280;-47
2021/01/30 01:52:51;;;;;;;82.00;39.17;;;1.20;99.90;;;;;;4109583;28;20090;-48
2021/01/30 01:55:04;;;;;;;84.00;40.60;;;1.20;99.90;;;;;;4109061;28;20343;-47
2021/01/30 01:57:12;;;;;;;81.73;39.23;;;1.20;99.90;;;;;;4109235;28;20308;-45
2021/01/30 01:59:16;;;;;;;69.33;32.10;;;1.20;99.90;;;;;;4108544;28;20343;-44
2021/01/30 02:01:19;;;;;;;64.43;31.03;;;1.20;99.90;;;;;;4108564;28;20323;-46
2021/01/30 02:03:21;;;;;;;67.00;32.93;;;1.20;99.90;;;;;;4108268;28;20808;-46
2021/01/30 02:05:32;;;;;;;67.80;34.30;;;1.20;99.90;;;;;;4108772;28;20273;-45
2021/01/30 02:07:37;;;;;;;;;;;1.20;99.90;;;;;;4109327;28;20319;-44
2021/01/30 02:09:38;;;;;;;75.37;35.63;;;1.20;99.90;;;;;;4108882;28;19910;-48
2021/01/30 02:11:40;;;;;;;82.47;37.73;;;1.20;99.90;;;;;;4109055;28;20273;-44
2021/01/30 02:13:45;;;;;;;79.73;37.57;;;1.30;99.90;;;;;;4108874;28;20265;-47
2021/01/30 02:15:52;;;;;;;84.73;39.70;;;1.20;99.90;;;;;;4108672;28;20265;-49
2021/01/30 02:18:07;;;;;;;86.60;39.90;;;1.30;99.90;;;;;;4108521;28;20630;-44
2021/01/30 02:20:55;;;;;;;78.53;38.43;;;1.30;99.90;;;;;;4108559;28;20327;-48
2021/01/30 02:23:24;;;;;;;69.57;33.43;;;1.30;99.90;;;;;;4083032;29;20277;-49
2021/01/30 02:25:43;;;;;;;101.37;44.97;;;1.30;99.90;;;;;;4092610;28;20273;-43
2021/01/30 02:27:55;;;;;;;126.57;52.90;;;1.30;99.90;;;;;;4103587;28;20277;-46
2021/01/30 02:30:12;;;;;;;100.20;42.77;;;1.30;99.90;;;;;;4108267;28;20268;-47
2021/01/30 02:32:55;;;;;;;79.43;36.27;;;1.40;99.90;;;;;;4108578;28;20292;-46
2021/01/30 02:35:33;;;;;;;76.13;35.90;;;1.40;99.90;;;;;;4108631;28;20308;-44
2021/01/30 02:38:05;;;;;;;89.53;41.03;;;1.30;99.90;;;;;;4107975;28;20276;-45
2021/01/30 02:40:15;;;;;;;79.77;37.60;;;1.40;99.90;;;;;;4107995;28;20281;-43
2021/01/30 02:42:24;;;;;;;93.00;40.03;;;1.40;99.90;;;;;;4108122;28;20677;-43
2021/01/30 02:44:29;;;;;;;65.23;30.53;;;1.40;99.90;;;;;;4108472;28;20265;-48
2021/01/30 02:46:35;;;;;;;68.97;32.83;;;1.40;99.90;;;;;;4107805;28;20297;-44
2021/01/30 02:48:41;;;;;;;64.73;32.13;;;1.40;99.90;;;;;;4108643;28;20311;-43
2021/01/30 02:50:45;;;;;;;59.13;27.40;;;1.40;99.90;;;;;;4107624;28;20289;-46
2021/01/30 02:52:50;;;;;;;63.47;29.33;;;1.40;99.90;;;;;;4108700;28;20681;-51
2021/01/30 02:54:55;;;;;;;57.47;28.27;;;1.40;99.90;;;;;;4107744;28;20293;-50
2021/01/30 02:56:58;;;;;;;50.67;25.47;;;1.40;99.90;;;;;;4108294;28;20347;-49
2021/01/30 02:59:03;;;;;;;53.43;26.20;;;1.30;99.90;;;;;;4107855;28;20748;-48
2021/01/30 03:01:04;;;;;;;54.83;26.33;;;1.30;99.90;;;;;;4108391;28;20634;-50
2021/01/30 03:03:06;;;;;;;53.33;27.03;;;1.30;99.90;;;;;;4107754;28;20269;-44
2021/01/30 03:05:11;;;;;;;58.70;29.37;;;1.30;99.90;;;;;;4107950;28;20312;-43
2021/01/30 03:07:32;;;;;;;58.30;29.00;;;1.30;99.90;;;;;;4108416;28;20273;-43
2021/01/30 03:10:10;;;;;;;70.80;33.58;;;1.30;99.90;;;;;;4107901;28;20332;-44
2021/01/30 03:12:29;;;;;;;83.83;39.80;;;1.30;99.90;;;;;;4088314;29;20479;-46
2021/01/30 03:14:31;;;;;;;65.13;31.97;;;1.40;99.90;;;;;;4094210;28;20273;-46
2021/01/30 03:16:39;;;;;;;59.73;31.10;;;1.30;99.90;;;;;;4107376;28;20816;-44
2021/01/30 03:18:48;;;;;;;63.73;31.47;;;1.40;99.90;;;;;;4107890;28;20780;-42
2021/01/30 03:20:50;;;;;;;61.30;31.77;;;1.40;99.90;;;;;;4107633;28;20371;-48
2021/01/30 03:22:53;;;;;;;67.87;31.93;;;1.40;99.90;;;;;;4108721;28;20285;-48
2021/01/30 03:24:55;;;;;;;62.37;30.27;;;1.40;99.90;;;;;;4107331;28;20292;-46
2021/01/30 03:26:56;;;;;;;51.53;26.63;;;1.40;99.90;;;;;;4108027;28;20820;-49
2021/01/30 03:28:57;;;;;;;53.33;26.77;;;1.40;99.90;;;;;;4107962;28;20300;-46
2021/01/30 03:31:00;;;;;;;50.53;24.93;;;1.40;99.90;;;;;;4106359;28;20281;-49
2021/01/30 03:33:01;;;;;;;53.57;27.60;;;1.40;99.90;;;;;;4107533;28;20327;-46
2021/01/30 03:35:05;;;;;;;57.63;30.50;;;1.40;99.90;;;;;;4107468;28;20277;-45
2021/01/30 03:37:06;;;;;;;58.07;28.50;;;1.40;99.90;;;;;;4107824;28;20277;-45
2021/01/30 03:39:17;;;;;;;61.00;29.57;;;1.40;99.90;;;;;;4106361;28;20379;-46
2021/01/30 03:41:18;;;;;;;63.38;29.05;;;1.40;99.90;;;;;;4107720;28;20356;-47
2021/01/30 03:43:19;;;;;;;62.50;29.03;;;1.40;99.90;;;;;;4107620;28;20105;-46
2021/01/30 03:45:25;;;;;;;63.10;31.90;;;1.40;99.90;;;;;;4107874;28;20264;-47
2021/01/30 03:47:26;;;;;;;63.07;30.17;;;1.40;99.90;;;;;;4106860;28;20307;-43
2021/01/30 03:49:27;;;;;;;62.83;31.53;;;1.30;99.90;;;;;;4107070;28;20402;-48
2021/01/30 03:51:28;;;;;;;59.13;29.67;;;1.30;99.90;;;;;;4107463;28;20827;-53
2021/01/30 03:53:29;;;;;;;86.00;37.80;;;1.30;99.90;;;;;;4108183;28;20261;-48
2021/01/30 03:55:31;;;;;;;68.30;30.53;;;1.30;99.90;;;;;;4107216;28;20277;-52
2021/01/30 03:57:32;;;;;;;62.90;31.20;;;1.30;99.90;;;;;;4107544;28;20328;-53
2021/01/30 03:59:33;;;;;;;65.60;32.00;;;1.30;99.90;;;;;;4107560;28;20360;-52
2021/01/30 04:01:36;;;;;;;75.00;34.07;;;1.40;99.90;;;;;;4107069;28;20335;-44
2021/01/30 04:03:38;;;;;;;68.53;32.70;;;1.30;99.90;;;;;;4107550;28;20280;-43
2021/01/30 04:05:39;;;;;;;69.30;32.37;;;1.40;99.90;;;;;;4107672;28;20351;-45
2021/01/30 04:07:43;;;;;;;63.77;29.17;;;1.30;99.90;;;;;;4107658;28;20425;-43
2021/01/30 04:09:44;;;;;;;57.60;27.40;;;1.30;99.90;;;;;;4110305;28;20300;-46
2021/01/30 04:11:46;;;;;;;75.87;35.80;;;1.20;99.90;;;;;;4110664;28;20285;-46
2021/01/30 04:13:47;;;;;;;78.97;34.43;;;1.30;99.90;;;;;;4110545;28;20319;-44
2021/01/30 04:15:48;;;;;;;77.77;34.27;;;1.30;99.90;;;;;;4110494;28;20327;-44
2021/01/30 04:17:49;;;;;;;76.37;35.80;;;1.30;99.90;;;;;;4110047;28;20288;-46
2021/01/30 04:19:51;;;;;;;75.27;36.07;;;1.30;99.90;;;;;;4110249;28;20320;-46
2021/01/30 04:21:52;;;;;;;75.03;35.50;;;1.30;99.90;;;;;;4110418;28;20288;-45
2021/01/30 04:23:53;;;;;;;78.37;36.17;;;1.40;99.90;;;;;;4110857;28;20688;-45
2021/01/30 04:25:54;;;;;;;71.03;32.97;;;1.40;99.90;;;;;;4109954;28;20362;-46
2021/01/30 04:27:56;;;;;;;69.33;33.67;;;1.40;99.90;;;;;;4110821;28;20277;-44
2021/01/30 04:29:58;;;;;;;71.33;33.37;;;1.40;99.90;;;;;;4110376;28;20384;-44
2021/01/30 04:31:59;;;;;;;64.03;29.57;;;1.40;99.90;;;;;;4109781;28;20339;-45
2021/01/30 04:34:00;;;;;;;68.73;31.93;;;1.50;99.90;;;;;;4110147;28;20273;-48
2021/01/30 04:36:03;;;;;;;72.67;32.13;;;1.50;99.90;;;;;;4110471;28;20324;-44
2021/01/30 04:38:05;;;;;;;57.50;29.63;;;1.50;99.90;;;;;;4108978;28;20288;-46
2021/01/30 04:40:09;;;;;;;61.27;29.13;;;1.50;99.90;;;;;;4110369;28;20281;-45
2021/01/30 04:42:19;;;;;;;67.80;30.60;;;1.60;99.90;;;;;;4109787;28;20355;-45
2021/01/30 04:44:52;;;;;;;60.75;30.15;;;1.50;99.90;;;;;;4110221;28;20354;-45
2021/01/30 04:47:16;;;;;;;63.33;30.40;;;1.50;99.90;;;;;;4089228;28;20113;-44
2021/01/30 04:49:53;;;;;;;62.90;30.23;;;1.60;99.90;;;;;;4093938;29;20347;-47
2021/01/30 04:51:57;;;;;;;62.03;29.63;;;1.60;99.90;;;;;;4092435;29;20273;-49
2021/01/30 04:54:30;;;;;;;63.03;29.53;;;1.60;99.90;;;;;;4105200;28;20340;-46
2021/01/30 04:56:42;;;;;;;63.87;31.50;;;1.60;99.90;;;;;;4109227;28;20292;-45
2021/01/30 04:59:06;;;;;;;63.60;32.97;;;1.60;99.90;;;;;;4109894;28;20269;-46
2021/01/30 05:01:07;;;;;;;68.63;31.23;;;1.60;99.90;;;;;;4106761;28;20308;-43
2021/01/30 05:03:35;;;;;;;71.43;31.87;;;1.60;99.90;;;;;;4110012;28;20328;-43
2021/01/30 05:05:38;;;;;;;73.60;34.07;;;1.60;99.90;;;;;;4109484;28;20277;-44
2021/01/30 05:07:47;;;;;;;74.17;33.60;;;1.60;99.90;;;;;;4110328;28;20281;-43
2021/01/30 05:09:51;;;;;;;78.30;38.33;;;1.60;99.90;;;;;;4093679;28;21010;-52
2021/01/30 05:12:16;;;;;;;78.13;36.70;;;1.60;99.90;;;;;;4094080;28;20278;-44
2021/01/30 05:14:21;;;;;;;68.57;32.60;;;1.60;99.90;;;;;;4094085;28;20800;-45
2021/01/30 05:17:01;;;;;;;68.03;32.57;;;1.60;99.90;;;;;;4095539;28;20773;-49
2021/01/30 05:19:07;;;;;;;61.23;30.00;;;1.70;99.90;;;;;;4109464;28;20292;-44
2021/01/30 05:21:36;;;;;;;58.90;29.63;;;1.70;99.90;;;;;;4108462;28;20804;-47
2021/01/30 05:23:39;;;;;;;63.93;30.97;;;1.70;99.90;;;;;;4093669;28;20332;-48
2021/01/30 05:25:41;;;;;;;62.30;29.60;;;1.70;99.90;;;;;;4109207;28;20340;-42
2021/01/30 05:28:04;;;;;;;69.37;32.57;;;1.70;99.90;;;;;;4109536;28;20284;-44
2021/01/30 05:30:21;;;;;;;65.03;32.27;;;1.70;99.90;;;;;;4109461;28;20269;-43
2021/01/30 05:32:31;;;;;;;64.73;32.30;;;1.70;99.90;;;;;;4108950;28;20268;-49
2021/01/30 05:34:38;;;;;;;66.20;32.73;;;1.70;99.90;;;;;;4109438;28;20327;-47
2021/01/30 05:36:45;;;;;;;59.13;30.27;;;1.70;99.90;;;;;;4109180;28;20280;-49
2021/01/30 05:39:13;;;;;;;61.67;31.30;;;1.70;99.90;;;;;;4108613;28;20761;-43
2021/01/30 05:41:23;;;;;;;63.87;31.53;;;1.70;99.90;;;;;;4108716;28;20284;-44
2021/01/30 05:43:30;;;;;;;;;;;1.60;99.90;;;;;;4109083;28;20764;-50
2021/01/30 05:45:49;;;;;;;64.33;29.43;;;1.60;99.90;;;;;;4109027;28;19961;-42
2021/01/30 05:47:52;;;;;;;65.00;31.30;;;1.60;99.90;;;;;;4108705;28;20265;-45
2021/01/30 05:50:22;;;;;;;71.63;32.17;;;1.50;99.90;;;;;;4109165;28;20323;-43
2021/01/30 05:52:29;;;;;;;70.70;34.27;;;1.50;99.90;;;;;;4104923;28;20343;-43
2021/01/30 05:54:30;;;;;;;72.43;33.73;;;1.50;99.90;;;;;;4108986;28;20737;-44
2021/01/30 05:56:38;;;;;;;71.97;34.10;;;1.50;99.90;;;;;;4108441;28;20281;-45
2021/01/30 05:58:43;;;;;;;74.90;36.57;;;1.50;99.90;;;;;;4109068;28;20339;-43
2021/01/30 06:00:44;;;;;;;70.67;33.03;;;1.50;99.90;;;;;;4108637;28;20881;-44
2021/01/30 06:03:17;;;;;;;64.93;33.57;;;1.50;99.90;;;;;;4108714;28;20835;-47
2021/01/30 06:05:18;;;;;;;63.30;31.93;;;1.60;99.90;;;;;;4108295;28;20838;-46
2021/01/30 06:07:28;;;;;;;68.00;33.03;;;1.60;99.90;;;;;;4108674;28;20277;-44
2021/01/30 06:09:36;;;;;;;63.27;32.90;;;1.60;99.90;;;;;;4108946;28;20292;-47
2021/01/30 06:11:47;;;;;;;72.63;33.90;;;1.70;99.90;;;;;;4108834;28;20289;-44
2021/01/30 06:14:01;;;;;;;71.80;35.23;;;1.70;99.90;;;;;;4108201;28;20327;-53
2021/01/30 06:16:02;;;;;;;72.73;34.70;;;1.70;99.90;;;;;;4108731;28;20288;-47
2021/01/30 06:18:25;;;;;;;73.60;33.37;;;1.80;99.90;;;;;;4108110;28;20339;-45
2021/01/30 06:20:30;;;;;;;71.73;32.13;;;1.80;99.90;;;;;;4108900;28;20268;-49
2021/01/30 06:22:32;;;;;;;63.00;31.80;;;1.90;99.90;;;;;;4108781;28;21175;-46
2021/01/30 06:24:35;;;;;;;59.97;30.70;;;1.90;99.90;;;;;;4107117;28;20957;-46
2021/01/30 06:26:41;;;;;;;63.80;29.00;;;1.90;99.90;;;;;;4108770;28;20328;-46
2021/01/30 06:28:47;;;;;;;58.93;28.83;;;2.00;99.90;;;;;;4108640;28;20265;-43
2021/01/30 06:30:50;;;;;;;52.20;26.23;;;2.00;99.90;;;;;;4108778;28;20324;-45
2021/01/30 06:33:01;;;;;;;53.90;26.43;;;2.10;99.90;;;;;;4107460;28;20757;-50
2021/01/30 06:35:08;;;;;;;;;;;2.10;99.90;;;;;;4109009;28;20276;-45
2021/01/30 06:37:16;;;;;;;49.00;24.70;;;2.20;99.90;;;;;;4107848;28;20260;-43
2021/01/30 06:39:34;;;;;;;60.63;29.10;;;2.20;99.90;;;;;;4108646;28;20268;-43
2021/01/30 06:41:36;;;;;;;84.80;39.47;;;2.30;99.90;;;;;;4108038;28;20300;-49
2021/01/30 06:43:44;;;;;;;73.33;34.27;;;2.20;99.90;;;;;;4108211;28;20339;-44
2021/01/30 06:45:46;;;;;;;69.27;31.23;;;2.10;99.90;;;;;;4108261;28;20816;-55
2021/01/30 06:47:48;;;;;;;67.80;29.60;;;2.00;99.90;;;;;;4106907;28;20312;-45
2021/01/30 06:49:52;;;;;;;59.70;29.33;;;2.00;99.90;;;;;;4106356;28;20315;-48
2021/01/30 06:52:15;;;;;;;65.17;29.93;;;1.90;99.90;;;;;;4108259;28;20272;-44
2021/01/30 06:54:30;;;;;;;63.40;30.40;;;1.70;99.90;;;;;;4107903;28;20265;-45
2021/01/30 06:56:35;;;;;;;73.30;32.00;;;1.70;99.90;;;;;;4108075;28;20257;-48
2021/01/30 06:58:41;;;;;;;69.83;33.40;;;1.70;99.90;;;;;;4107150;28;20343;-53
2021/01/30 07:00:42;;;;;;;71.20;32.33;;;1.70;99.90;;;;;;4107705;28;20272;-53
2021/01/30 07:03:25;;;;;;;77.20;35.37;;;1.80;99.90;;;;;;4107260;28;20366;-44
2021/01/30 07:05:48;;;;;;;80.60;34.33;;;1.80;99.90;;;;;;4107787;28;20751;-41
2021/01/30 07:08:17;;;;;;;59.27;27.57;;;1.90;99.90;;;;;;4107414;28;20277;-43
2021/01/30 07:10:51;;;;;;;45.73;21.20;;;2.10;99.90;;;;;;4107344;28;20261;-44
2021/01/30 07:12:58;;;;;;;35.03;17.13;;;2.40;99.90;;;;;;4107814;28;20331;-43
2021/01/30 07:15:22;;;;;;;35.77;16.87;;;2.70;99.90;;;;;;4107228;28;20261;-48
2021/01/30 07:17:57;;;;;;;30.60;14.77;;;3.10;99.90;;;;;;4107677;28;20292;-49
2021/01/30 07:20:08;;;;;;;27.47;13.17;;;3.40;99.90;;;;;;4107234;28;20315;-52
2021/01/30 07:22:18;;;;;;;33.53;16.65;;;3.70;99.90;;;;;;4107167;28;20301;-60
2021/01/30 07:24:25;;;;;;;39.97;17.52;;;3.90;99.90;;;;;;4107563;28;21000;-43
2021/01/30 07:26:35;;;;;;;37.93;17.37;;;4.20;99.90;;;;;;4106010;28;20105;-55
2021/01/30 07:28:42;;;;;;;37.78;16.98;;;4.50;99.90;;;;;;4107430;28;20331;-50
2021/01/30 07:30:49;;;;;;;38.23;17.07;;;4.70;99.90;;;;;;4107439;28;20035;-48
2021/01/30 07:32:59;;;;;;;32.60;15.80;;;4.90;99.90;;;;;;4107095;28;20355;-46
2021/01/30 07:35:19;;;;;;;31.67;14.52;;;5.00;99.90;;;;;;4107569;28;20359;-64
2021/01/30 07:37:55;;;;;;;22.37;12.17;;;5.10;99.90;;;;;;4107506;28;20097;-53
2021/01/30 07:40:02;;;;;;;17.93;9.83;;;5.20;99.90;;;;;;4084845;28;20281;-44
2021/01/30 07:42:11;;;;;;;17.47;9.53;;;5.20;99.90;;;;;;4107051;28;21098;-45
2021/01/30 07:44:24;;;;;;;17.57;9.90;;;5.30;99.90;;;;;;4106206;28;20265;-41
2021/01/30 07:46:31;;;;;;;19.10;11.07;;;5.40;99.90;;;;;;4106984;28;20388;-50
2021/01/30 07:48:41;;;;;;;14.13;7.93;;;5.40;99.90;;;;;;4106954;28;20323;-45
2021/01/30 07:50:49;;;;;;;16.63;9.03;;;5.50;99.90;;;;;;4106987;28;20269;-43
2021/01/30 07:53:05;;;;;;;13.93;8.90;;;5.60;99.90;;;;;;4107602;28;20336;-53
2021/01/30 07:55:10;;;;;;;17.23;9.63;;;5.60;99.90;;;;;;4106118;28;20359;-51
2021/01/30 07:57:23;;;;;;;18.17;8.90;;;5.50;99.90;;;;;;4106634;28;20745;-55
2021/01/30 07:59:41;;;;;;;22.10;12.23;;;5.60;99.90;;;;;;4107454;28;20273;-54
2021/01/30 08:02:07;;;;;;;15.00;9.83;;;5.60;99.90;;;;;;4107173;28;20297;-49
2021/01/30 08:04:11;;;;;;;19.50;11.47;;;5.60;99.90;;;;;;4106466;28;20978;-50
2021/01/30 08:06:33;;;;;;;18.50;11.30;;;5.60;99.90;;;;;;4106462;28;20355;-42
2021/01/30 08:08:41;;;;;;;26.03;15.87;;;5.70;99.90;;;;;;4106457;28;20277;-58
2021/01/30 08:10:57;;;;;;;23.73;13.10;;;5.80;99.90;;;;;;4106596;28;20401;-40
2021/01/30 08:13:07;;;;;;;20.43;12.47;;;5.90;99.90;;;;;;4105779;28;20283;-53
2021/01/30 08:15:32;;;;;;;23.57;11.77;;;5.90;99.90;;;;;;4094183;28;20699;-52
2021/01/30 08:17:52;;;;;;;17.60;9.63;;;6.00;99.90;;;;;;4106642;28;20347;-59
2021/01/30 08:20:49;;;;;;;14.98;9.38;;;6.00;99.90;;;;;;4106544;28;20035;-60
2021/01/30 08:23:06;;;;;;;19.00;11.23;;;6.10;99.90;;;;;;4086404;28;20125;-52
2021/01/30 08:25:16;;;;;;;20.47;9.87;;;6.10;99.90;;;;;;4100960;28;21205;-57
2021/01/30 08:27:23;;;;;;;38.25;20.38;;;6.20;99.90;;;;;;4106173;28;20552;-48
2021/01/30 08:29:37;;;;;;;22.80;12.20;;;6.30;99.90;;;;;;4105896;28;20082;-47
2021/01/30 08:31:54;;;;;;;21.60;12.33;;;6.30;99.90;;;;;;4107115;28;20129;-48
2021/01/30 08:34:09;;;;;;;13.40;8.97;;;6.40;99.90;;;;;;4119501;28;20114;-50
2021/01/30 08:36:40;;;;;;;14.30;9.03;;;6.40;99.90;;;;;;4117848;28;20704;-50
2021/01/30 08:38:41;;;;;;;11.60;7.17;;;6.40;99.90;;;;;;4106770;28;20082;-54
2021/01/30 08:40:51;;;;;;;12.67;7.67;;;6.50;99.90;;;;;;4105889;28;20479;-52
2021/01/30 08:42:58;;;;;;;11.95;7.40;;;6.50;99.90;;;;;;4106256;28;20105;-48
2021/01/30 08:45:10;;;;;;;12.00;8.83;;;6.60;99.90;;;;;;4106380;28;20105;-48
2021/01/30 08:47:18;;;;;;;13.97;6.73;;;6.60;99.90;;;;;;4106341;28;20035;-47
2021/01/30 08:49:23;;;;;;;8.37;5.20;;;6.70;99.90;;;;;;4105848;28;20098;-46
2021/01/30 08:51:25;;;;;;;10.90;5.73;;;6.80;99.90;;;;;;4106474;28;20019;-46
2021/01/30 08:53:31;;;;;;;8.03;5.17;;;6.90;99.90;;;;;;4106575;28;20082;-50
2021/01/30 08:55:34;;;;;;;6.30;3.50;;;7.10;99.90;;;;;;4108314;28;20046;-51
2021/01/30 08:57:35;;;;;;;5.40;3.40;;;7.20;99.90;;;;;;4109478;28;20050;-49
2021/01/30 08:59:50;;;;;;;4.50;3.43;;;7.30;99.90;;;;;;4108722;28;20126;-45
2021/01/30 09:01:52;;;;;;;7.10;3.50;;;7.40;99.90;;;;;;4108824;28;20050;-54
2021/01/30 09:03:58;;;;;;;5.07;3.37;;;7.50;99.90;;;;;;4108500;28;20023;-50
2021/01/30 09:05:59;;;;;;;6.40;4.53;;;7.60;99.90;;;;;;4108906;28;20035;-53
2021/01/30 09:08:16;;;;;;;7.57;4.10;;;7.80;99.90;;;;;;4108852;28;20031;-50
2021/01/30 09:10:19;;;;;;;5.30;2.80;;;8.00;99.90;;;;;;4108830;28;20082;-56
2021/01/30 09:12:57;;;;;;;4.17;3.13;;;8.20;99.90;;;;;;4108286;28;20043;-49
2021/01/30 09:14:58;;;;;;;4.80;2.90;;;8.60;99.90;;;;;;4108481;28;20027;-41
2021/01/30 09:17:08;;;;;;;3.13;2.60;;;8.90;99.90;;;;;;4108876;28;20047;-48
2021/01/30 09:19:21;;;;;;;2.17;1.35;;;9.00;99.90;;;;;;4109046;28;20066;-53
2021/01/30 09:21:28;;;;;;;3.60;2.13;;;9.10;99.90;;;;;;4109071;28;20068;-43
2021/01/30 09:24:00;;;;;;;5.17;1.80;;;9.20;99.90;;;;;;4109022;28;20047;-46
2021/01/30 09:26:04;;;;;;;2.37;1.50;;;9.30;99.90;;;;;;4108860;28;20113;-48
2021/01/30 09:28:19;;;;;;;3.20;2.13;;;9.30;99.90;;;;;;4108808;28;20038;-58
2021/01/30 09:30:42;;;;;;;3.37;2.17;;;9.20;99.90;;;;;;4109473;28;20097;-57
2021/01/30 09:32:46;;;;;;;5.63;2.13;;;9.10;99.90;;;;;;4108498;28;20503;-55
2021/01/30 09:35:08;;;;;;;3.33;1.30;;;9.00;99.90;;;;;;4109009;28;20047;-56
2021/01/30 09:37:30;;;;;;;2.23;1.30;;;8.70;99.90;;;;;;4108793;28;20109;-54
2021/01/30 09:39:35;;;;;;;5.47;1.43;;;8.70;99.90;;;;;;4109261;28;20117;-48
2021/01/30 09:41:37;;;;;;;3.23;1.40;;;8.60;99.90;;;;;;4109082;28;20117;-51
2021/01/30 09:43:38;;;;;;;4.07;1.80;;;8.70;99.90;;;;;;4107212;28;20526;-47
2021/01/30 09:45:49;;;;;;;2.90;1.60;;;8.70;99.90;;;;;;4108841;28;20089;-46
2021/01/30 09:47:52;;;;;;;3.75;1.83;;;8.90;99.90;;;;;;4107966;28;20086;-51
2021/01/30 09:50:13;;;;;;;1.63;1.10;;;9.00;99.90;;;;;;4107800;28;20026;-53
2021/01/30 09:52:19;;;;;;;;;;;9.20;99.90;;;;;;4109070;28;20027;-48
2021/01/30 09:54:23;;;;;;;1.43;1.33;;;9.30;99.90;;;;;;4108992;28;19910;-52
2021/01/30 09:56:25;;;;;;;1.60;1.37;;;9.40;99.90;;;;;;4108816;28;20043;-43
2021/01/30 09:58:26;;;;;;;1.43;0.90;;;9.50;99.90;;;;;;4108545;28;20034;-48
2021/01/30 10:00:41;;;;;;;1.77;1.10;;;9.40;99.90;;;;;;4108410;28;20097;-49
2021/01/30 10:02:44;;;;;;;2.70;1.50;;;9.30;99.90;;;;;;4108256;28;20471;-48
2021/01/30 10:04:48;;;;;;;2.47;1.33;;;9.30;99.90;;;;;;4108023;28;20101;-53
2021/01/30 10:06:51;;;;;;;2.80;1.20;;;9.30;99.90;;;;;;4107583;28;20102;-57
2021/01/30 10:08:52;;;;;;;1.67;1.10;;;9.30;99.90;;;;;;4108187;28;20046;-50
2021/01/30 10:11:13;;;;;;;2.93;1.10;;;9.30;99.90;;;;;;4108121;28;20039;-50
2021/01/30 10:13:17;;;;;;;1.77;1.10;;;9.30;99.90;;;;;;4107840;28;20168;-55
2021/01/30 10:15:34;;;;;;;1.07;0.93;;;9.30;99.90;;;;;;4106854;28;20042;-45
2021/01/30 10:17:43;;;;;;;1.90;0.90;;;9.30;99.90;;;;;;4108113;28;20113;-47
2021/01/30 10:19:44;;;;;;;1.60;0.90;;;9.30;99.90;;;;;;4107440;28;20039;-47
2021/01/30 10:21:45;;;;;;;1.20;1.10;;;9.30;99.90;;;;;;4108416;28;20121;-55
2021/01/30 10:23:51;;;;;;;2.97;0.97;;;9.30;99.90;;;;;;4107536;28;20035;-52
2021/01/30 10:26:14;;;;;;;1.87;1.20;;;9.20;99.90;;;;;;4107684;28;20051;-52
2021/01/30 10:28:15;;;;;;;1.87;0.83;;;9.20;99.90;;;;;;4107836;28;20043;-52
2021/01/30 10:30:18;;;;;;;2.23;0.97;;;9.20;99.90;;;;;;4108479;28;20042;-56
2021/01/30 10:32:26;;;;;;;4.00;2.50;;;9.10;99.90;;;;;;4107450;28;20117;-46
2021/01/30 10:34:32;;;;;;;4.30;2.20;;;9.10;99.90;;;;;;4107625;28;20455;-52
2021/01/30 10:36:37;;;;;;;3.60;1.70;;;9.10;99.90;;;;;;4107429;28;20031;-51
2021/01/30 10:38:39;;;;;;;7.93;2.67;;;9.10;99.90;;;;;;4108210;28;20086;-52
2021/01/30 10:40:50;;;;;;;1.97;1.23;;;9.10;99.90;;;;;;4107976;28;20051;-52
2021/01/30 10:42:51;;;;;;;1.27;0.75;;;9.10;99.90;;;;;;4115321;28;20164;-47
2021/01/30 10:45:03;;;;;;;1.47;1.10;;;9.00;99.90;;;;;;4123501;28;20076;-54
2021/01/30 10:47:05;;;;;;;3.07;1.60;;;8.90;99.90;;;;;;4114857;28;20542;-56
2021/01/30 10:49:24;;;;;;;5.37;1.77;;;8.90;99.90;;;;;;4107485;28;20568;-48
2021/01/30 10:51:28;;;;;;;2.97;1.10;;;8.70;99.90;;;;;;4107424;28;20023;-49
2021/01/30 11:11:07;;;;;;;3.40;1.47;;;9.10;99.90;;;;;;4197979;23;20057;-59
2021/01/30 11:13:23;;;;;;;7.63;1.60;;;9.20;99.90;;;;;;4138537;28;20112;-59
2021/01/30 11:15:24;;;;;;;3.77;1.33;;;9.20;99.90;;;;;;4141259;28;20038;-57
2021/01/30 11:17:34;;;;;;;11.03;1.73;;;9.30;99.90;;;;;;4139250;28;20112;-59
2021/01/30 11:19:36;;;;;;;5.25;2.30;;;9.30;99.90;;;;;;4141106;28;20119;-51
2021/01/30 11:21:38;;;;;;;2.87;1.47;;;9.30;99.90;;;;;;4139708;28;20038;-64
2021/01/30 11:23:46;;;;;;;6.80;2.27;;;9.20;99.90;;;;;;4140755;28;20548;-63